createdAt,value
2019-02-07T00:00:24.374Z,99916.00
2019-02-07T00:02:55.992Z,99917.00
2019-02-07T00:05:26.438Z,99916.00
2019-02-07T00:07:56.879Z,99920.00
2019-02-07T00:10:27.322Z,99917.00
2019-02-07T00:12:58.724Z,99912.00
2019-02-07T00:15:29.543Z,99897.00
2019-02-07T00:18:01.845Z,99899.00
2019-02-07T00:20:34.705Z,99898.00
2019-02-07T00:23:06.604Z,99890.00
2019-02-07T00:25:38.437Z,99880.00
2019-02-07T00:28:11.707Z,99878.00
2019-02-07T00:30:42.243Z,99884.00
2019-02-07T00:33:12.691Z,99888.00
2019-02-07T00:35:43.119Z,99888.00
2019-02-07T00:38:14.263Z,99886.00
2019-02-07T00:40:45.828Z,99891.00
2019-02-07T00:43:17.354Z,99890.00
2019-02-07T00:45:49.301Z,99883.00
2019-02-07T00:48:19.715Z,99866.00
2019-02-07T00:50:50.564Z,99856.00
2019-02-07T00:53:22.766Z,99853.00
2019-02-07T00:55:53.197Z,99868.00
2019-02-07T00:58:24.729Z,99868.00
2019-02-07T01:00:57.083Z,99855.00
2019-02-07T01:03:30.865Z,99850.00
2019-02-07T01:06:03.014Z,99859.00
2019-02-07T01:08:36.487Z,99864.00
2019-02-07T01:11:07.059Z,99862.00
2019-02-07T01:13:38.088Z,99861.00
2019-02-07T01:16:10.354Z,99855.00
2019-02-07T01:18:41.509Z,99846.00
2019-02-07T01:21:12.194Z,99836.00
2019-02-07T01:23:43.757Z,99835.00
2019-02-07T01:26:15.053Z,99838.00
2019-02-07T01:28:46.097Z,99838.00
2019-02-07T01:31:18.344Z,99831.00
2019-02-07T01:33:51.048Z,99833.00
2019-02-07T01:36:23.344Z,99829.00
2019-02-07T01:38:53.949Z,99830.00
2019-02-07T01:41:24.455Z,99812.00
2019-02-07T01:43:55.137Z,99817.00
2019-02-07T01:49:16.594Z,99801.00
2019-02-07T01:51:47.107Z,99800.00
2019-02-07T01:54:17.832Z,99790.00
2019-02-07T01:56:48.319Z,99788.00
2019-02-07T01:59:21.135Z,99782.00
2019-02-07T02:01:51.574Z,99783.00
2019-02-07T02:04:23.472Z,99770.00
2019-02-07T02:06:55.101Z,99758.00
2019-02-07T02:09:25.660Z,99752.00
2019-02-07T02:11:56.509Z,99759.00
2019-02-07T02:14:28.625Z,99756.00
2019-02-07T02:17:03.298Z,99758.00
2019-02-07T02:19:33.719Z,99749.00
2019-02-07T02:22:04.153Z,99743.00
2019-02-07T02:24:34.605Z,99731.00
2019-02-07T02:27:05.035Z,99712.00
2019-02-07T02:29:36.325Z,99719.00
2019-02-07T02:32:08.743Z,99721.00
2019-02-07T02:34:39.141Z,99707.00
2019-02-07T02:37:10.382Z,99705.00
2019-02-07T02:39:40.833Z,99710.00
2019-02-07T02:42:12.144Z,99711.00
2019-02-07T02:44:42.970Z,99717.00
2019-02-07T02:47:13.413Z,99724.00
2019-02-07T02:49:43.832Z,99715.00
2019-02-07T02:52:15.157Z,99696.00
2019-02-07T02:54:50.817Z,99687.00
2019-02-07T02:57:21.651Z,99681.00
2019-02-07T02:59:52.066Z,99693.00
2019-02-07T03:02:50.304Z,99689.00
2019-02-07T03:05:38.541Z,99685.00
2019-02-07T03:08:33.428Z,99671.00
2019-02-07T03:11:27.897Z,99675.00
2019-02-07T03:14:23.229Z,99671.00
2019-02-07T03:17:22.704Z,99667.00
2019-02-07T03:20:18.543Z,99662.00
2019-02-07T03:23:12.521Z,99665.00
2019-02-07T03:26:14.571Z,99657.00
2019-02-07T03:29:05.674Z,99650.00
2019-02-07T03:32:05.056Z,99643.00
2019-02-07T03:34:58.302Z,99643.00
2019-02-07T03:37:52.447Z,99646.00
2019-02-07T03:41:00.109Z,99647.00
2019-02-07T03:43:42.842Z,99641.00
2019-02-07T03:46:30.944Z,99637.00
2019-02-07T03:49:12.573Z,99629.00
2019-02-07T03:52:11.076Z,99625.00
2019-02-07T03:55:11.268Z,99619.00
2019-02-07T03:58:06.727Z,99609.00
2019-02-07T04:01:04.414Z,99603.00
2019-02-07T04:04:00.964Z,99593.00
2019-02-07T04:06:51.003Z,99593.00
2019-02-07T04:09:43.354Z,99583.00
2019-02-07T04:12:40.382Z,99585.00
2019-02-07T04:15:33.630Z,99586.00
2019-02-07T04:18:22.102Z,99580.00
2019-02-07T04:21:14.700Z,99580.00
2019-02-07T04:24:17.741Z,99581.00
2019-02-07T04:27:04.651Z,99576.00
2019-02-07T04:29:44.188Z,99564.00
2019-02-07T04:32:39.716Z,99567.00
2019-02-07T04:35:24.892Z,99568.00
2019-02-07T04:38:13.173Z,99557.00
2019-02-07T04:40:57.237Z,99561.00
2019-02-07T04:43:45.443Z,99560.00
2019-02-07T04:46:50.395Z,99550.00
2019-02-07T04:49:39.768Z,99554.00
2019-02-07T04:52:27.837Z,99563.00
2019-02-07T04:55:27.658Z,99551.00
2019-02-07T04:58:07.639Z,99556.00
2019-02-07T05:00:58.606Z,99545.00
2019-02-07T05:03:43.952Z,99552.00
2019-02-07T05:06:29.418Z,99548.00
2019-02-07T05:09:25.841Z,99541.00
2019-02-07T05:12:15.809Z,99537.00
2019-02-07T05:15:05.434Z,99527.00
2019-02-07T05:17:55.124Z,99520.00
2019-02-07T05:20:41.216Z,99518.00
2019-02-07T05:23:29.167Z,99525.00
2019-02-07T05:26:18.379Z,99523.00
2019-02-07T05:29:22.617Z,99515.00
2019-02-07T05:32:16.247Z,99512.00
2019-02-07T05:34:55.584Z,99513.00
2019-02-07T05:37:55.702Z,99519.00
2019-02-07T05:40:45.152Z,99512.00
2019-02-07T05:43:43.315Z,99520.00
2019-02-07T05:46:49.341Z,99511.00
2019-02-07T05:49:39.285Z,99509.00
2019-02-07T05:52:35.385Z,99511.00
2019-02-07T05:55:32.513Z,99513.00
2019-02-07T05:58:27.038Z,99514.00
2019-02-07T06:01:09.808Z,99502.00
2019-02-07T06:04:01.994Z,99506.00
2019-02-07T06:06:54.263Z,99509.00
2019-02-07T06:09:33.470Z,99506.00
2019-02-07T06:12:21.385Z,99501.00
2019-02-07T06:15:13.585Z,99500.00
2019-02-07T06:18:02.949Z,99498.00
2019-02-07T06:20:47.756Z,99497.00
2019-02-07T06:23:46.293Z,99492.00
2019-02-07T06:26:45.928Z,99488.00
2019-02-07T06:29:29.408Z,99489.00
2019-02-07T06:32:09.976Z,99485.00
2019-02-07T06:34:50.644Z,99488.00
2019-02-07T06:37:38.068Z,99479.00
2019-02-07T06:40:47.742Z,99471.00
2019-02-07T06:43:41.409Z,99469.00
2019-02-07T06:46:29.063Z,99468.00
2019-02-07T06:49:28.426Z,99463.00
2019-02-07T06:52:33.044Z,99465.00
2019-02-07T06:55:26.609Z,99445.00
2019-02-07T06:58:15.424Z,99438.00
2019-02-07T07:01:08.909Z,99433.00
2019-02-07T07:04:00.127Z,99436.00
2019-02-07T07:06:39.744Z,99422.00
2019-02-07T07:09:40.887Z,99417.00
2019-02-07T07:12:39.139Z,99417.00
2019-02-07T07:15:29.367Z,99410.00
2019-02-07T07:18:19.960Z,99411.00
2019-02-07T07:21:14.340Z,99406.00
2019-02-07T07:24:02.994Z,99400.00
2019-02-07T07:26:52.165Z,99389.00
2019-02-07T07:29:50.984Z,99377.00
2019-02-07T07:32:36.028Z,99367.00
2019-02-07T07:35:31.310Z,99373.00
2019-02-07T07:38:19.578Z,99365.00
2019-02-07T07:41:12.443Z,99372.00
2019-02-07T07:44:15.193Z,99362.00
2019-02-07T07:47:00.496Z,99380.00
2019-02-07T07:50:06.683Z,99381.00
2019-02-07T07:52:56.631Z,99381.00
2019-02-07T07:56:02.486Z,99378.00
2019-02-07T07:59:08.787Z,99367.00
2019-02-07T08:01:52.811Z,99374.00
2019-02-07T08:04:35.591Z,99357.00
2019-02-07T08:07:25.936Z,99354.00
2019-02-07T08:10:16.340Z,99361.00
2019-02-07T08:13:09.185Z,99351.00
2019-02-07T08:16:01.642Z,99349.00
2019-02-07T08:18:55.876Z,99346.00
2019-02-07T08:21:45.306Z,99344.00
2019-02-07T08:24:43.386Z,99341.00
2019-02-07T08:27:42.139Z,99341.00
2019-02-07T08:30:36.690Z,99333.00
2019-02-07T08:33:44.576Z,99329.00
2019-02-07T08:36:40.107Z,99334.00
2019-02-07T08:39:33.990Z,99322.00
2019-02-07T08:42:35.787Z,99318.00
2019-02-07T08:45:46.077Z,99309.00
2019-02-07T08:48:27.581Z,99316.00
2019-02-07T08:51:12.119Z,99313.00
2019-02-07T08:53:52.084Z,99324.00
2019-02-07T08:56:33.738Z,99327.00
2019-02-07T08:59:45.191Z,99328.00
2019-02-07T09:02:34.701Z,99325.00
2019-02-07T09:05:33.838Z,99317.00
2019-02-07T09:08:20.935Z,99311.00
2019-02-07T09:11:23.695Z,99315.00
2019-02-07T09:14:12.391Z,99309.00
2019-02-07T09:16:59.886Z,99296.00
2019-02-07T09:19:51.756Z,99297.00
2019-02-07T09:22:33.405Z,99292.00
2019-02-07T09:25:34.570Z,99295.00
2019-02-07T09:28:27.435Z,99289.00
2019-02-07T09:31:21.610Z,99266.00
2019-02-07T09:34:29.204Z,99266.00
2019-02-07T09:37:17.812Z,99256.00
2019-02-07T09:40:13.269Z,99248.00
2019-02-07T09:42:58.422Z,99243.00
2019-02-07T09:45:46.444Z,99254.00
2019-02-07T09:48:50.896Z,99249.00
2019-02-07T09:51:39.226Z,99246.00
2019-02-07T09:54:22.925Z,99242.00
2019-02-07T09:56:59.753Z,99234.00
2019-02-07T10:00:04.646Z,99243.00
2019-02-07T10:02:42.719Z,99247.00
2019-02-07T10:05:48.311Z,99239.00
2019-02-07T10:08:49.736Z,99220.00
2019-02-07T10:11:37.836Z,99215.00
2019-02-07T10:14:27.172Z,99220.00
2019-02-07T10:17:22.798Z,99216.00
2019-02-07T10:20:11.723Z,99208.00
2019-02-07T10:23:06.997Z,99209.00
2019-02-07T10:25:53.998Z,99193.00
2019-02-07T10:28:42.366Z,99192.00
2019-02-07T10:31:30.742Z,99192.00
2019-02-07T10:34:18.904Z,99197.00
2019-02-07T10:36:56.845Z,99215.00
2019-02-07T10:39:47.732Z,99223.00
2019-02-07T10:42:35.740Z,99230.00
2019-02-07T10:45:27.073Z,99222.00
2019-02-07T10:48:19.166Z,99237.00
2019-02-07T10:51:06.930Z,99219.00
2019-02-07T10:53:53.275Z,99219.00
2019-02-07T10:56:39.079Z,99224.00
2019-02-07T10:59:40.753Z,99222.00
2019-02-07T11:02:25.545Z,99223.00
2019-02-07T11:05:18.162Z,99214.00
2019-02-07T11:08:07.526Z,99218.00
2019-02-07T11:10:57.110Z,99222.00
2019-02-07T11:13:58.495Z,99218.00
2019-02-07T11:16:47.907Z,99216.00
2019-02-07T11:19:41.335Z,99210.00
2019-02-07T11:22:29.188Z,99208.00
2019-02-07T11:25:18.507Z,99209.00
2019-02-07T11:28:20.065Z,99204.00
2019-02-07T11:30:59.949Z,99197.00
2019-02-07T11:33:49.442Z,99187.00
2019-02-07T11:36:57.466Z,99187.00
2019-02-07T11:39:46.813Z,99194.00
2019-02-07T11:42:44.870Z,99208.00
2019-02-07T11:45:36.811Z,99198.00
2019-02-07T11:48:35.594Z,99193.00
2019-02-07T11:51:24.026Z,99196.00
2019-02-07T11:54:16.128Z,99185.00
2019-02-07T11:57:03.953Z,99168.00
2019-02-07T12:22:38.361Z,99160.00
2019-02-07T12:25:33.929Z,99154.00
2019-02-07T12:28:19.162Z,99147.00
2019-02-07T12:31:17.419Z,99143.00
2019-02-07T12:34:10.273Z,99146.00
2019-02-07T12:37:00.433Z,99146.00
2019-02-07T12:39:47.420Z,99136.00
2019-02-07T12:42:38.458Z,99124.00
2019-02-07T12:45:32.683Z,99122.00
2019-02-07T12:48:24.807Z,99134.00
2019-02-07T12:51:06.329Z,99122.00
2019-02-07T12:53:55.481Z,99120.00
2019-02-07T12:56:46.710Z,99108.00
2019-02-07T12:59:45.193Z,99099.00
2019-02-07T13:02:37.534Z,99090.00
2019-02-07T13:05:31.403Z,99096.00
2019-02-07T13:08:26.769Z,99096.00
2019-02-07T13:11:05.550Z,99099.00
2019-02-07T13:14:13.166Z,99091.00
2019-02-07T13:17:01.540Z,99087.00
2019-02-07T13:19:59.774Z,99091.00
2019-02-07T13:22:49.738Z,99088.00
2019-02-07T13:46:47.982Z,99099.00
2019-02-07T13:49:34.208Z,99102.00
2019-02-07T13:52:26.584Z,99110.00
2019-02-07T13:55:17.083Z,99093.00
2019-02-07T13:58:15.610Z,99106.00
2019-02-07T14:01:10.725Z,99095.00
2019-02-07T14:04:03.623Z,99109.00
2019-02-07T14:07:07.144Z,99110.00
2019-02-07T14:09:59.329Z,99116.00
2019-02-07T14:13:04.172Z,99107.00
2019-02-07T14:15:53.821Z,99116.00
2019-02-07T14:18:46.573Z,99122.00
2019-02-07T14:21:37.088Z,99123.00
2019-02-07T14:24:34.304Z,99121.00
2019-02-07T14:27:25.417Z,99129.00
2019-02-07T14:30:13.705Z,99127.00
2019-02-07T14:33:05.171Z,99125.00
2019-02-07T14:36:00.420Z,99127.00
2019-02-07T14:38:57.400Z,99124.00
2019-02-07T14:41:44.300Z,99123.00
2019-02-07T14:44:34.520Z,99123.00
2019-02-07T14:47:05.023Z,99131.00
2019-02-07T14:49:35.494Z,99138.00
2019-02-07T14:52:07.938Z,99127.00
2019-02-07T14:54:38.386Z,99132.00
2019-02-07T14:57:08.966Z,99141.00
2019-02-07T14:59:40.718Z,99141.00
2019-02-07T15:02:11.278Z,99139.00
2019-02-07T15:04:41.791Z,99139.00
2019-02-07T15:07:14.547Z,99142.00
2019-02-07T15:09:46.162Z,99133.00
2019-02-07T15:12:16.614Z,99137.00
2019-02-07T15:14:47.288Z,99138.00
2019-02-07T15:17:18.374Z,99135.00
2019-02-07T15:19:49.277Z,99137.00
2019-02-07T15:22:19.773Z,99139.00
2019-02-07T15:24:50.316Z,99147.00
2019-02-07T15:27:21.299Z,99131.00
2019-02-07T15:29:52.030Z,99132.00
2019-02-07T15:32:22.502Z,99138.00
2019-02-07T15:34:53.917Z,99127.00
2019-02-07T15:37:24.543Z,99130.00
2019-02-07T15:39:55.045Z,99120.00
2019-02-07T15:42:25.492Z,99129.00
2019-02-07T15:44:56.640Z,99112.00
2019-02-07T15:47:27.175Z,99126.00
2019-02-07T15:49:57.723Z,99131.00
2019-02-07T15:52:28.257Z,99147.00
2019-02-07T15:54:58.759Z,99147.00
2019-02-07T15:57:29.384Z,99143.00
2019-02-07T16:00:03.997Z,99150.00
2019-02-07T16:02:47.095Z,99133.00
2019-02-07T16:05:19.007Z,99152.00
2019-02-07T16:07:49.885Z,99162.00
2019-02-07T16:10:20.384Z,99167.00
2019-02-07T16:12:50.843Z,99170.00
2019-02-07T16:15:22.890Z,99157.00
2019-02-07T16:17:53.429Z,99172.00
2019-02-07T16:20:25.754Z,99184.00
2019-02-07T16:22:58.948Z,99180.00
2019-02-07T16:25:29.037Z,99187.00
2019-02-07T16:28:48.029Z,99180.00
2019-02-07T16:31:18.541Z,99172.00
2019-02-07T16:33:49.024Z,99180.00
2019-02-07T16:36:20.630Z,99179.00
2019-02-07T16:42:42.842Z,99175.00
2019-02-07T16:45:16.461Z,99178.00
2019-02-07T16:47:46.941Z,99178.00
2019-02-07T16:54:08.911Z,99185.00
2019-02-07T16:56:39.469Z,99188.00
2019-02-07T16:59:11.667Z,99203.00
2019-02-07T17:01:42.414Z,99199.00
2019-02-07T17:05:01.277Z,99198.00
2019-02-07T17:07:32.061Z,99204.00
2019-02-07T17:13:53.776Z,99210.00
2019-02-07T17:16:25.642Z,99208.00
2019-02-07T17:18:56.119Z,99205.00
2019-02-07T17:21:26.687Z,99207.00
2019-02-07T17:23:57.194Z,99214.00
2019-02-07T17:26:27.864Z,99199.00
2019-02-07T17:28:58.379Z,99205.00
2019-02-07T17:31:29.929Z,99194.00
2019-02-07T17:34:00.881Z,99216.00
2019-02-07T17:36:31.454Z,99207.00
2019-02-07T17:39:02.867Z,99212.00
2019-02-07T17:41:33.356Z,99211.00
2019-02-07T17:44:03.864Z,99209.00
2019-02-07T17:46:34.457Z,99209.00
2019-02-07T17:49:05.278Z,99214.00
2019-02-07T17:51:35.754Z,99206.00
2019-02-07T17:54:06.884Z,99215.00
2019-02-07T17:56:37.378Z,99218.00
2019-02-07T17:59:07.876Z,99219.00
2019-02-07T18:01:38.626Z,99212.00
2019-02-07T18:04:09.193Z,99222.00
2019-02-07T18:06:42.327Z,99220.00
2019-02-07T18:09:12.922Z,99225.00
2019-02-07T18:11:43.497Z,99224.00
2019-02-07T18:14:14.381Z,99234.00
2019-02-07T18:16:44.861Z,99221.00
2019-02-07T18:19:15.565Z,99228.00
2019-02-07T18:21:47.257Z,99235.00
2019-02-07T18:24:17.783Z,99233.00
2019-02-07T18:26:48.290Z,99228.00
2019-02-07T18:29:18.954Z,99239.00
2019-02-07T18:31:49.647Z,99244.00
2019-02-07T18:34:20.163Z,99239.00
2019-02-07T18:36:50.646Z,99230.00
2019-02-07T18:39:23.544Z,99234.00
2019-02-07T18:41:54.316Z,99237.00
2019-02-07T18:44:26.023Z,99242.00
2019-02-07T18:46:56.664Z,99233.00
2019-02-07T18:49:29.671Z,99241.00
2019-02-07T18:52:03.122Z,99245.00
2019-02-07T18:54:34.007Z,99240.00
2019-02-07T18:57:04.548Z,99253.00
2019-02-07T18:59:35.569Z,99248.00
2019-02-07T19:02:06.556Z,99256.00
2019-02-07T19:04:36.967Z,99270.00
2019-02-07T19:07:08.387Z,99257.00
2019-02-07T19:09:38.862Z,99275.00
2019-02-07T19:12:09.365Z,99289.00
2019-02-07T19:14:40.430Z,99294.00
2019-02-07T19:17:11.917Z,99305.00
2019-02-07T19:19:42.901Z,99296.00
2019-02-07T19:22:13.665Z,99299.00
2019-02-07T19:24:44.190Z,99307.00
2019-02-07T19:27:16.120Z,99311.00
2019-02-07T19:29:48.123Z,99306.00
2019-02-07T19:32:18.629Z,99314.00
2019-02-07T19:34:49.205Z,99309.00
2019-02-07T19:37:19.672Z,99308.00
2019-02-07T19:39:50.645Z,99325.00
2019-02-07T19:42:21.244Z,99333.00
2019-02-07T19:44:52.047Z,99339.00
2019-02-07T19:47:22.938Z,99350.00
2019-02-07T19:49:55.241Z,99351.00
2019-02-07T19:52:26.067Z,99341.00
2019-02-07T19:54:57.172Z,99351.00
2019-02-07T19:57:28.036Z,99353.00
2019-02-07T19:59:58.595Z,99369.00
2019-02-07T20:02:29.136Z,99354.00
2019-02-07T20:05:00.315Z,99356.00
2019-02-07T20:07:33.025Z,99350.00
2019-02-07T20:10:05.980Z,99354.00
2019-02-07T20:12:36.615Z,99363.00
2019-02-07T20:15:15.918Z,99364.00
2019-02-07T20:17:51.776Z,99376.00
2019-02-07T20:20:24.795Z,99373.00
2019-02-07T20:22:56.228Z,99364.00
2019-02-07T20:25:26.743Z,99372.00
2019-02-07T20:27:57.867Z,99378.00
2019-02-07T20:30:32.331Z,99379.00
2019-02-07T20:33:03.124Z,99384.00
2019-02-07T20:35:33.829Z,99379.00
2019-02-07T20:38:05.177Z,99377.00
2019-02-07T20:40:35.916Z,99382.00
2019-02-07T20:43:07.721Z,99386.00
2019-02-07T20:45:38.325Z,99382.00
2019-02-07T20:48:10.299Z,99379.00
2019-02-07T20:50:40.915Z,99378.00
2019-02-07T20:53:11.390Z,99382.00
2019-02-07T20:55:41.964Z,99382.00
2019-02-07T20:58:12.667Z,99370.00
2019-02-07T21:03:21.690Z,99380.00
2019-02-07T21:05:52.240Z,99388.00
2019-02-07T21:08:22.815Z,99390.00
2019-02-07T21:10:53.672Z,99381.00
2019-02-07T21:13:24.221Z,99385.00
2019-02-07T21:15:55.927Z,99383.00
2019-02-07T21:18:26.414Z,99392.00
2019-02-07T21:20:57.254Z,99390.00
2019-02-07T21:23:27.781Z,99406.00
2019-02-07T21:25:58.707Z,99400.00
2019-02-07T21:28:29.613Z,99413.00
2019-02-07T21:31:00.079Z,99413.00
2019-02-07T21:33:30.657Z,99411.00
2019-02-07T21:36:01.596Z,99414.00
2019-02-07T21:38:32.476Z,99428.00
2019-02-07T21:41:02.930Z,99419.00
2019-02-07T21:43:33.743Z,99418.00
2019-02-07T21:46:04.340Z,99428.00
2019-02-07T21:48:34.820Z,99429.00
2019-02-07T21:51:06.523Z,99431.00
2019-02-07T21:53:37.422Z,99352.00
2019-02-07T21:56:07.877Z,99438.00
2019-02-07T21:58:38.462Z,99431.00
2019-02-07T22:01:09.544Z,99438.00
2019-02-07T22:03:40.050Z,99435.00
2019-02-07T22:06:10.975Z,99442.00
2019-02-07T22:08:41.452Z,99439.00
2019-02-07T22:11:11.923Z,99445.00
2019-02-07T22:13:43.655Z,99439.00
2019-02-07T22:16:14.130Z,99444.00
2019-02-07T22:18:44.608Z,99456.00
2019-02-07T22:21:15.362Z,99444.00
2019-02-07T22:23:45.838Z,99455.00
2019-02-07T22:26:16.274Z,99444.00
2019-02-07T22:28:46.713Z,99448.00
2019-02-07T22:31:21.531Z,99450.00
2019-02-07T22:33:52.137Z,99455.00
2019-02-07T22:36:23.383Z,99453.00
2019-02-07T22:38:53.873Z,99453.00
2019-02-07T22:41:24.323Z,99450.00
2019-02-07T22:43:54.839Z,99453.00
2019-02-07T22:46:26.412Z,99447.00
2019-02-07T22:48:58.967Z,99440.00
2019-02-07T22:51:29.427Z,99441.00
2019-02-07T22:53:59.893Z,99441.00
2019-02-07T22:56:30.332Z,99447.00
2019-02-07T22:59:00.807Z,99435.00
2019-02-07T23:01:56.578Z,99435.00
2019-02-07T23:04:29.564Z,99442.00
2019-02-07T23:06:59.995Z,99439.00
2019-02-07T23:09:30.479Z,99439.00
2019-02-07T23:12:01.039Z,99449.00
2019-02-07T23:14:31.488Z,99450.00
2019-02-07T23:17:02.144Z,99457.00
2019-02-07T23:19:32.593Z,99450.00
2019-02-07T23:22:03.084Z,99451.00
2019-02-07T23:24:33.908Z,99450.00
2019-02-07T23:27:04.887Z,99453.00
2019-02-07T23:29:35.316Z,99461.00
2019-02-07T23:32:06.239Z,99453.00
2019-02-07T23:34:36.733Z,99457.00
2019-02-07T23:37:07.182Z,99460.00
2019-02-07T23:39:38.584Z,99463.00
2019-02-07T23:42:09.147Z,99471.00
2019-02-07T23:44:39.687Z,99472.00
2019-02-07T23:47:10.147Z,99481.00
2019-02-07T23:49:40.748Z,99471.00
2019-02-07T23:52:11.590Z,99478.00
2019-02-07T23:54:42.108Z,99490.00
2019-02-07T23:57:12.570Z,99490.00
2019-02-07T23:59:43.044Z,99482.00
